EPKK/KRK METAR and TAF weather

Enter ICAO airport designator
Station Type Date Time Source
EPKK METAR 2021/05/14 06:30 UTC NOAA

EPKK 140630Z 27009KT 9999 BKN010 13/11 Q1002


Station Type Date Time Source
EPKK Decoded METAR 2021/05/14 06:30 UTC NOAA

Krakow, Poland (EPKK) 50-05N 019-48E 237M
May 14, 2021 - 02:30 AM EDT / 2021.05.14 0630 UTC
Wind: from the W (270 degrees) at 10 MPH (9 KT):0
Visibility: greater than 7 mile(s):0
Sky conditions: mostly cloudy
Temperature: 55 F (13 C)
Dew Point: 51 F (11 C)
Relative Humidity: 87%
Pressure (altimeter): 29.59 in. Hg (1002 hPa)
ob: EPKK 140630Z 27009KT 9999 BKN010 13/11 Q1002
cycle: 6

Station Type Date Time Source
EPKK TAF 2021/05/14 06:33 UTC NOAA

TAF EPKK 140530Z 1406/1506 26008KT 9999 BKN010 PROB30
TEMPO 1406/1409 4000 BR BKN004
BECMG 1409/1411 BKN020
TEMPO 1410/1421 BKN020CB PROB40
TEMPO 1411/1418 27015G25KT 4000 TSRA BKN009 BKN014CB

Example: see airport list